Time;durP1;ratioP1;P1;durP2;ratioP2;P2;SDS_P1;SDS_P2;PMS_P1;PMS_P2;Temp;Humidity;BMP_temperature;BMP_pressure;BME280_temperature;BME280_humidity;BME280_pressure;Samples;Min_cycle;Max_cycle;Signal;HPM_P1;HPM_P2
2023/01/17 00:00:02;;;;;;;1.45;1.08;;;21.50;68.60;;;;;;5037785;28;20270;-35
2023/01/17 00:02:30;;;;;;;2.63;1.35;;;21.50;68.50;;;;;;5039152;28;20197;-35
2023/01/17 00:10:28;;;;;;;2.08;1.42;;;21.40;68.60;;;;;;5034045;28;20208;-35
2023/01/17 00:12:56;;;;;;;1.55;1.40;;;21.40;68.70;;;;;;5036408;28;20205;-35
2023/01/17 00:15:24;;;;;;;1.85;0.95;;;21.40;68.90;;;;;;5040006;28;20212;-36
2023/01/17 00:17:53;;;;;;;1.10;1.00;;;21.40;68.70;;;;;;5039184;28;20289;-35
2023/01/17 00:26:03;;;;;;;4.60;1.10;;;21.40;68.70;;;;;;5039031;28;20216;-35
2023/01/17 01:35:30;;;;;;;1.30;1.10;;;21.20;68.50;;;;;;5040051;28;20334;-35
2023/01/17 01:37:58;;;;;;;1.10;1.00;;;21.20;68.40;;;;;;5039338;28;20271;-35
2023/01/17 01:40:25;;;;;;;1.77;0.88;;;21.20;68.40;;;;;;5040027;28;20202;-35
2023/01/17 01:42:53;;;;;;;1.42;1.00;;;21.30;68.40;;;;;;5036190;28;20227;-35
2023/01/17 01:45:22;;;;;;;2.10;1.13;;;21.30;68.40;;;;;;5039724;28;20199;-35
2023/01/17 01:47:51;;;;;;;1.20;0.93;;;21.30;68.40;;;;;;5037837;28;20201;-35
2023/01/17 01:50:21;;;;;;;1.23;0.98;;;21.30;68.50;;;;;;5035249;28;20197;-36
2023/01/17 01:52:53;;;;;;;0.90;0.80;;;21.30;68.40;;;;;;5036611;28;20669;-35
2023/01/17 01:55:25;;;;;;;1.15;0.98;;;21.30;68.10;;;;;;5039767;28;20220;-35
2023/01/17 01:57:57;;;;;;;1.30;1.20;;;21.40;68.10;;;;;;5038369;28;20247;-35
2023/01/17 02:00:29;;;;;;;3.47;1.00;;;21.40;68.10;;;;;;5036338;28;20220;-35
2023/01/17 02:02:58;;;;;;;0.98;0.88;;;21.30;68.10;;;;;;5040239;28;20676;-35
2023/01/17 02:05:26;;;;;;;1.30;1.00;;;21.30;68.30;;;;;;5037352;28;20250;-35
2023/01/17 02:07:58;;;;;;;2.05;1.10;;;21.20;68.30;;;;;;5041616;28;20651;-35
2023/01/17 02:10:27;;;;;;;1.73;0.90;;;21.20;68.40;;;;;;5037438;28;20324;-35
2023/01/17 02:12:55;;;;;;;1.42;1.00;;;21.20;68.40;;;;;;5036825;28;20227;-35
2023/01/17 02:15:29;;;;;;;1.30;1.00;;;21.20;68.40;;;;;;5035950;28;20204;-35
2023/01/17 02:18:04;;;;;;;2.28;1.00;;;21.20;68.40;;;;;;5038281;28;20204;-35
2023/01/17 02:20:55;;;;;;;1.67;1.15;;;21.20;68.30;;;;;;5039269;28;20299;-35
2023/01/17 02:23:44;;;;;;;1.27;0.70;;;21.20;68.30;;;;;;5037803;28;20207;-35
2023/01/17 02:26:42;;;;;;;1.55;1.17;;;21.20;68.40;;;;;;5039937;28;20208;-35
2023/01/17 02:29:47;;;;;;;1.00;0.90;;;21.30;68.40;;;;;;5041313;28;20201;-35
2023/01/17 02:32:24;;;;;;;1.00;0.82;;;21.30;68.10;;;;;;5033992;28;20195;-35
2023/01/17 02:34:56;;;;;;;1.45;0.75;;;21.30;68.00;;;;;;5039309;28;20207;-35
2023/01/17 02:37:26;;;;;;;1.98;1.50;;;21.30;68.10;;;;;;5040445;28;20582;-35
2023/01/17 02:39:59;;;;;;;1.58;0.80;;;21.30;68.20;;;;;;5039345;28;20226;-35
2023/01/17 02:42:31;;;;;;;1.20;0.90;;;21.20;69.10;;;;;;5033947;28;20198;-35
2023/01/17 02:44:58;;;;;;;1.10;0.80;;;21.20;68.50;;;;;;5037412;28;20849;-35
2023/01/17 02:47:27;;;;;;;1.55;1.15;;;21.10;68.40;;;;;;5035276;28;20198;-35
2023/01/17 02:49:58;;;;;;;1.10;0.90;;;21.10;68.40;;;;;;5036914;28;20243;-35
2023/01/17 02:52:44;;;;;;;1.23;0.95;;;21.10;68.40;;;;;;5034048;28;20265;-35
2023/01/17 02:55:33;;;;;;;1.02;0.80;;;21.20;68.40;;;;;;5038961;28;20537;-36
2023/01/17 02:58:14;;;;;;;1.00;0.88;;;21.20;68.30;;;;;;5036419;28;22028;-35
2023/01/17 03:00:56;;;;;;;1.10;0.90;;;21.20;68.50;;;;;;5037350;28;20460;-35
2023/01/17 03:03:30;;;;;;;1.70;1.02;;;21.20;68.40;;;;;;5041901;28;20199;-35
2023/01/17 03:06:02;;;;;;;1.75;1.10;;;21.30;68.20;;;;;;5041698;28;20727;-35
2023/01/17 03:08:29;;;;;;;1.00;0.70;;;21.30;68.10;;;;;;5041011;28;20606;-36
2023/01/17 03:10:55;;;;;;;0.90;0.70;;;21.30;68.10;;;;;;5037625;28;20208;-35
2023/01/17 03:13:22;;;;;;;1.00;0.80;;;21.30;68.10;;;;;;5041762;28;20222;-36
2023/01/17 03:15:49;;;;;;;1.23;0.90;;;21.30;68.20;;;;;;5038133;28;20215;-35
2023/01/17 03:18:17;;;;;;;0.95;0.70;;;21.20;68.20;;;;;;5042926;28;20276;-35
2023/01/17 03:20:45;;;;;;;1.00;0.75;;;21.10;69.10;;;;;;5040599;28;20629;-35
2023/01/17 03:23:11;;;;;;;0.98;0.75;;;21.10;68.40;;;;;;5040657;28;20256;-35
2023/01/17 03:25:38;;;;;;;1.10;0.90;;;21.10;68.50;;;;;;5041919;28;22037;-35
2023/01/17 03:28:05;;;;;;;1.20;0.90;;;21.10;68.40;;;;;;5040021;28;20273;-35
2023/01/17 03:30:32;;;;;;;1.20;1.00;;;21.10;68.30;;;;;;5040448;28;20211;-35
2023/01/17 03:32:58;;;;;;;1.08;0.70;;;21.20;68.20;;;;;;5035871;28;20521;-35
2023/01/17 03:35:27;;;;;;;1.20;0.82;;;21.20;68.10;;;;;;5038811;28;20194;-35
2023/01/17 03:37:55;;;;;;;0.90;0.70;;;21.20;68.20;;;;;;5038590;28;20741;-35
2023/01/17 03:40:21;;;;;;;1.02;0.80;;;21.30;68.10;;;;;;5035326;28;20332;-35
2023/01/17 03:42:48;;;;;;;1.00;0.80;;;21.30;68.00;;;;;;5038030;28;20558;-35
2023/01/17 03:45:15;;;;;;;1.23;0.90;;;21.30;67.90;;;;;;5039757;28;20209;-35
2023/01/17 03:47:42;;;;;;;1.00;0.80;;;21.30;68.00;;;;;;5042063;28;20284;-35
2023/01/17 03:50:10;;;;;;;0.93;0.77;;;21.20;68.00;;;;;;5040147;28;20200;-35
2023/01/17 03:52:37;;;;;;;1.13;1.00;;;21.20;68.10;;;;;;5039790;28;20202;-35
2023/01/17 03:55:06;;;;;;;1.00;0.80;;;21.10;68.20;;;;;;5042601;28;20298;-35
2023/01/17 03:57:32;;;;;;;1.08;0.85;;;21.10;68.20;;;;;;5041726;28;20213;-35
2023/01/17 03:59:59;;;;;;;1.10;0.90;;;21.10;68.20;;;;;;5041038;28;20232;-35
2023/01/17 04:02:25;;;;;;;1.73;1.00;;;21.20;68.20;;;;;;5041070;28;20195;-35
2023/01/17 04:04:52;;;;;;;1.02;0.90;;;21.20;68.10;;;;;;5040632;28;20464;-35
2023/01/17 04:07:19;;;;;;;0.90;0.80;;;21.20;68.00;;;;;;5043411;28;20192;-35
2023/01/17 04:09:46;;;;;;;0.88;0.70;;;21.20;68.00;;;;;;5038254;28;20263;-35
2023/01/17 04:12:14;;;;;;;0.90;0.60;;;21.20;67.90;;;;;;5039232;28;20200;-35
2023/01/17 04:14:40;;;;;;;1.20;0.80;;;21.30;67.80;;;;;;5034199;28;20903;-35
2023/01/17 04:17:09;;;;;;;0.90;0.75;;;21.30;67.80;;;;;;5038931;28;20254;-35
2023/01/17 04:19:36;;;;;;;1.25;0.90;;;21.30;67.80;;;;;;5041129;28;20225;-35
2023/01/17 04:22:03;;;;;;;0.90;0.70;;;21.30;67.90;;;;;;5039043;28;20201;-35
2023/01/17 04:24:30;;;;;;;1.23;0.80;;;21.20;68.00;;;;;;5041331;28;20226;-35
2023/01/17 04:26:57;;;;;;;0.90;0.70;;;21.10;67.90;;;;;;5038698;28;20290;-36
2023/01/17 04:29:25;;;;;;;1.15;0.77;;;21.10;68.10;;;;;;5039054;28;20685;-35
2023/01/17 04:31:51;;;;;;;0.90;0.70;;;21.10;68.10;;;;;;5038190;28;20199;-36
2023/01/17 04:34:18;;;;;;;0.93;0.80;;;21.10;68.10;;;;;;5039432;28;20465;-37
2023/01/17 04:36:45;;;;;;;1.52;1.00;;;21.20;68.00;;;;;;5043231;28;21784;-36
2023/01/17 04:39:11;;;;;;;1.00;0.77;;;21.20;67.90;;;;;;5030540;28;20273;-36
2023/01/17 04:41:38;;;;;;;0.90;0.80;;;21.20;67.90;;;;;;5039792;28;20198;-36
2023/01/17 04:44:05;;;;;;;1.25;0.85;;;21.20;67.80;;;;;;5034529;28;20216;-36
2023/01/17 04:46:33;;;;;;;1.00;0.70;;;21.30;67.60;;;;;;5038865;28;20192;-36
2023/01/17 04:49:00;;;;;;;0.82;0.70;;;21.30;67.60;;;;;;5042103;28;20254;-36
2023/01/17 04:51:26;;;;;;;1.08;0.80;;;21.30;67.60;;;;;;5032125;28;20247;-36
2023/01/17 04:53:53;;;;;;;1.00;0.85;;;21.30;67.60;;;;;;5041791;28;20209;-36
2023/01/17 04:56:20;;;;;;;1.10;0.90;;;21.20;67.70;;;;;;5038955;28;20242;-36
2023/01/17 04:58:46;;;;;;;1.10;0.70;;;21.20;67.90;;;;;;5038770;28;20303;-36
2023/01/17 05:01:13;;;;;;;0.90;0.70;;;21.10;68.00;;;;;;5034538;28;20220;-36
2023/01/17 05:03:41;;;;;;;1.13;0.73;;;21.10;68.10;;;;;;5039960;28;20385;-36
2023/01/17 05:06:08;;;;;;;1.10;0.80;;;21.10;68.00;;;;;;5038845;28;20193;-36
2023/01/17 05:08:34;;;;;;;1.00;0.70;;;21.20;67.90;;;;;;5036780;28;20610;-36
2023/01/17 05:11:01;;;;;;;0.90;0.70;;;21.20;67.60;;;;;;5037459;28;20207;-36
2023/01/17 05:13:28;;;;;;;0.85;0.68;;;21.20;67.70;;;;;;5036868;28;20197;-36
2023/01/17 05:15:56;;;;;;;1.33;0.70;;;21.20;67.60;;;;;;5030601;28;21054;-36
2023/01/17 05:18:23;;;;;;;0.98;0.77;;;21.30;67.50;;;;;;5038515;28;20709;-34
2023/01/17 05:20:51;;;;;;;1.00;0.80;;;21.30;67.40;;;;;;5035440;28;20366;-34
2023/01/17 05:23:18;;;;;;;0.90;0.70;;;21.30;68.10;;;;;;5041205;28;20289;-34
2023/01/17 05:25:44;;;;;;;0.90;0.70;;;21.30;68.20;;;;;;5038499;28;20219;-36
2023/01/17 05:28:12;;;;;;;0.90;0.60;;;21.20;67.50;;;;;;5039216;28;20619;-33
2023/01/17 05:30:39;;;;;;;0.90;0.70;;;21.20;67.70;;;;;;5033997;28;20208;-36
2023/01/17 05:33:06;;;;;;;0.90;0.70;;;21.10;67.60;;;;;;5040111;28;20202;-37
2023/01/17 05:35:33;;;;;;;2.55;0.80;;;21.10;67.70;;;;;;5040071;28;20755;-36
2023/01/17 05:38:01;;;;;;;1.00;0.80;;;21.10;67.80;;;;;;5036293;28;20662;-36
2023/01/17 05:40:30;;;;;;;0.93;0.70;;;21.20;67.70;;;;;;5036944;28;20221;-34
2023/01/17 05:42:58;;;;;;;1.00;0.80;;;21.20;67.50;;;;;;5036061;28;20557;-35
2023/01/17 05:45:27;;;;;;;1.00;0.70;;;21.20;67.60;;;;;;5034331;28;20713;-36
2023/01/17 05:47:55;;;;;;;1.30;0.70;;;21.20;67.60;;;;;;5034701;28;20599;-34
2023/01/17 05:50:24;;;;;;;1.20;0.73;;;21.30;67.50;;;;;;5040696;28;20204;-35
2023/01/17 05:52:52;;;;;;;0.80;0.60;;;21.30;67.30;;;;;;5036982;28;20200;-36
2023/01/17 05:55:21;;;;;;;1.00;0.70;;;21.30;67.40;;;;;;5038910;28;20259;-36
2023/01/17 05:57:48;;;;;;;0.80;0.60;;;21.30;67.50;;;;;;5041786;28;20554;-36
2023/01/17 06:00:15;;;;;;;1.00;0.60;;;21.20;67.50;;;;;;5034536;28;20282;-35
2023/01/17 06:02:42;;;;;;;0.90;0.80;;;21.10;67.60;;;;;;5038461;28;20198;-36
2023/01/17 06:05:09;;;;;;;1.20;0.82;;;21.10;68.60;;;;;;5036987;28;20204;-36
2023/01/17 06:07:36;;;;;;;0.90;0.70;;;21.00;67.70;;;;;;5041023;28;20206;-36
2023/01/17 06:10:04;;;;;;;0.90;0.70;;;21.10;67.80;;;;;;5037968;28;20264;-36
2023/01/17 06:12:32;;;;;;;0.90;0.70;;;21.00;67.70;;;;;;5036360;28;20196;-36
2023/01/17 06:14:58;;;;;;;1.00;0.70;;;21.00;67.80;;;;;;5034594;28;20650;-35
2023/01/17 06:17:25;;;;;;;0.90;0.75;;;20.90;68.00;;;;;;5035133;28;20745;-36
2023/01/17 06:19:52;;;;;;;1.38;0.90;;;20.80;68.20;;;;;;5041314;28;20266;-36
2023/01/17 06:22:18;;;;;;;0.90;0.70;;;20.70;68.30;;;;;;5036407;28;20278;-35
2023/01/17 06:24:45;;;;;;;1.45;1.35;;;20.60;68.50;;;;;;5038660;28;20199;-36
2023/01/17 06:27:12;;;;;;;0.80;0.60;;;20.60;68.70;;;;;;5038576;28;20249;-36
2023/01/17 06:29:39;;;;;;;1.00;0.80;;;20.50;68.90;;;;;;5037788;28;20256;-35
2023/01/17 06:32:06;;;;;;;1.42;0.90;;;20.50;69.00;;;;;;5039240;28;20323;-35
2023/01/17 06:34:33;;;;;;;1.02;0.88;;;20.70;68.70;;;;;;5042890;28;20277;-36
2023/01/17 06:37:00;;;;;;;1.00;0.70;;;21.00;68.80;;;;;;5043628;28;20209;-35
2023/01/17 06:39:26;;;;;;;0.90;0.60;;;21.20;67.60;;;;;;5042438;28;20248;-35
2023/01/17 06:41:53;;;;;;;1.17;0.70;;;21.20;67.30;;;;;;5038353;28;21849;-36
2023/01/17 06:44:20;;;;;;;0.90;0.80;;;21.30;67.00;;;;;;5040277;28;22322;-35
2023/01/17 06:46:48;;;;;;;1.08;0.80;;;21.50;66.70;;;;;;5035310;28;20484;-36
2023/01/17 06:49:15;;;;;;;0.90;0.70;;;21.60;66.50;;;;;;5042170;28;20254;-35
2023/01/17 06:51:41;;;;;;;1.00;0.70;;;21.70;66.10;;;;;;5041602;28;20729;-36
2023/01/17 06:54:09;;;;;;;1.00;0.80;;;21.80;65.90;;;;;;5040411;28;20202;-36
2023/01/17 06:56:36;;;;;;;0.70;0.50;;;21.90;65.90;;;;;;5039708;28;20229;-36
2023/01/17 06:59:03;;;;;;;0.90;0.70;;;22.00;65.60;;;;;;5040734;28;20220;-36
2023/01/17 07:01:30;;;;;;;1.00;0.80;;;22.00;65.40;;;;;;5039966;28;20556;-36
2023/01/17 07:03:58;;;;;;;1.00;0.60;;;22.10;65.30;;;;;;5041132;28;20564;-36
2023/01/17 07:06:27;;;;;;;1.02;0.93;;;22.10;65.10;;;;;;5040376;28;20201;-36
2023/01/17 07:08:55;;;;;;;0.90;0.70;;;22.20;65.10;;;;;;5044487;28;20205;-36
2023/01/17 07:11:22;;;;;;;1.00;0.80;;;22.20;64.80;;;;;;5039149;28;20206;-36
2023/01/17 07:13:49;;;;;;;0.90;0.68;;;22.30;64.70;;;;;;5037602;28;20196;-36
2023/01/17 07:16:16;;;;;;;0.90;0.70;;;22.30;64.70;;;;;;5033503;28;21526;-36
2023/01/17 07:18:42;;;;;;;0.90;0.70;;;22.30;64.70;;;;;;5040771;28;20196;-36
2023/01/17 07:21:14;;;;;;;1.10;0.60;;;22.30;64.50;;;;;;5037441;28;20252;-36
2023/01/17 07:23:41;;;;;;;0.90;0.67;;;22.40;64.40;;;;;;5039133;28;20202;-36
2023/01/17 07:26:08;;;;;;;0.87;0.63;;;22.40;64.50;;;;;;5040314;28;20522;-36
2023/01/17 07:28:35;;;;;;;0.93;0.70;;;22.30;64.50;;;;;;5041341;28;20973;-36
2023/01/17 07:31:05;;;;;;;0.82;0.73;;;22.40;64.60;;;;;;5039881;28;20251;-36
2023/01/17 07:33:32;;;;;;;0.88;0.70;;;22.40;64.50;;;;;;5040435;28;20194;-36
2023/01/17 07:35:59;;;;;;;1.05;0.80;;;22.40;64.40;;;;;;5042970;28;20200;-36
2023/01/17 07:38:27;;;;;;;0.90;0.70;;;22.40;64.40;;;;;;5037664;28;20250;-36
2023/01/17 07:40:57;;;;;;;0.90;0.60;;;22.40;64.40;;;;;;5044034;28;20212;-36
2023/01/17 07:43:24;;;;;;;1.33;0.80;;;22.30;64.40;;;;;;5039208;28;20463;-36
2023/01/17 07:45:51;;;;;;;0.90;0.70;;;22.30;64.50;;;;;;5032981;28;20192;-36
2023/01/17 07:48:19;;;;;;;0.95;0.70;;;22.30;64.50;;;;;;5039630;28;20196;-36
2023/01/17 07:50:50;;;;;;;0.90;0.70;;;22.30;64.70;;;;;;5040520;28;20201;-36
2023/01/17 07:53:17;;;;;;;1.00;0.70;;;22.20;64.80;;;;;;5041425;28;20201;-36
2023/01/17 07:55:45;;;;;;;0.82;0.60;;;22.10;65.00;;;;;;5040440;28;20308;-36
2023/01/17 07:58:13;;;;;;;0.77;0.60;;;22.10;65.30;;;;;;5041193;28;20194;-36
2023/01/17 08:00:41;;;;;;;0.90;0.63;;;21.90;65.40;;;;;;5037434;28;20490;-36
2023/01/17 08:03:13;;;;;;;1.38;0.65;;;21.80;65.60;;;;;;5043013;28;20669;-36
2023/01/17 08:05:40;;;;;;;1.10;0.75;;;21.80;65.80;;;;;;5043434;28;20207;-36
2023/01/17 08:08:07;;;;;;;0.90;0.70;;;21.70;66.00;;;;;;5035427;28;20202;-36
2023/01/17 08:10:34;;;;;;;1.00;0.60;;;21.70;66.00;;;;;;5034821;28;21498;-36
2023/01/17 08:13:02;;;;;;;1.00;0.80;;;21.80;65.90;;;;;;5035899;28;20484;-36
2023/01/17 08:15:28;;;;;;;1.00;0.80;;;21.80;65.60;;;;;;5036411;28;20479;-36
2023/01/17 08:17:56;;;;;;;0.90;0.70;;;21.90;65.40;;;;;;5040895;28;20205;-36
2023/01/17 08:20:24;;;;;;;0.90;0.70;;;22.00;65.20;;;;;;5039087;28;20226;-36
2023/01/17 08:22:53;;;;;;;0.80;0.70;;;22.10;64.90;;;;;;5037764;28;20209;-36
2023/01/17 08:25:20;;;;;;;0.93;0.70;;;22.20;64.70;;;;;;5040468;28;20209;-36
2023/01/17 08:27:46;;;;;;;1.00;0.70;;;22.30;64.50;;;;;;5037878;28;20497;-36
2023/01/17 08:30:15;;;;;;;1.00;0.70;;;22.40;64.40;;;;;;5035465;28;20462;-36
2023/01/17 08:32:41;;;;;;;0.93;0.75;;;22.40;64.20;;;;;;5038472;28;20524;-36
2023/01/17 08:35:09;;;;;;;0.88;0.70;;;22.40;64.10;;;;;;5044285;28;20575;-36
2023/01/17 08:37:37;;;;;;;1.00;0.70;;;22.40;64.20;;;;;;5041358;28;20198;-36
2023/01/17 08:40:04;;;;;;;0.90;0.70;;;22.40;64.10;;;;;;5040598;28;20540;-36
2023/01/17 08:42:36;;;;;;;0.80;0.60;;;22.50;64.20;;;;;;5040998;28;20467;-36
2023/01/17 08:45:03;;;;;;;0.85;0.68;;;22.40;64.20;;;;;;5040193;28;20204;-36
2023/01/17 08:47:31;;;;;;;0.90;0.70;;;22.40;64.20;;;;;;5038595;28;20207;-36
2023/01/17 08:49:59;;;;;;;1.07;0.77;;;22.40;64.30;;;;;;5039792;28;20202;-36
2023/01/17 08:52:25;;;;;;;1.00;0.80;;;22.40;64.40;;;;;;5035146;28;20497;-35
2023/01/17 08:54:53;;;;;;;0.93;0.77;;;22.30;64.30;;;;;;5037448;28;20859;-35
2023/01/17 08:57:20;;;;;;;1.07;0.77;;;22.30;64.30;;;;;;5041368;28;20893;-36
2023/01/17 08:59:46;;;;;;;1.20;0.77;;;22.30;64.50;;;;;;5039475;28;20737;-36
2023/01/17 09:02:14;;;;;;;1.00;0.80;;;22.30;64.60;;;;;;5033341;28;20279;-35
2023/01/17 09:04:43;;;;;;;1.23;1.10;;;22.30;64.60;;;;;;5037848;28;20634;-35
2023/01/17 09:07:10;;;;;;;1.00;0.80;;;22.20;64.50;;;;;;5039406;28;20963;-36
2023/01/17 09:09:37;;;;;;;1.57;1.07;;;22.20;64.60;;;;;;5040875;28;20956;-36
2023/01/17 09:12:04;;;;;;;0.90;0.70;;;22.20;64.60;;;;;;5037947;28;20472;-36
2023/01/17 09:14:30;;;;;;;0.80;0.65;;;22.20;64.70;;;;;;5037363;28;20653;-36
2023/01/17 09:16:57;;;;;;;1.00;0.70;;;22.20;64.80;;;;;;5035739;28;22612;-36
2023/01/17 09:19:24;;;;;;;0.83;0.70;;;22.20;64.80;;;;;;5039446;28;20869;-36
2023/01/17 09:21:52;;;;;;;1.00;0.80;;;22.20;64.80;;;;;;5039535;28;20487;-37
2023/01/17 09:24:18;;;;;;;0.90;0.73;;;22.20;64.80;;;;;;5025958;28;20467;-36
2023/01/17 09:26:45;;;;;;;1.00;0.70;;;22.20;64.80;;;;;;5030814;28;20454;-37
2023/01/17 09:29:16;;;;;;;0.90;0.77;;;22.20;64.80;;;;;;5028584;28;20518;-37
2023/01/17 09:31:45;;;;;;;1.05;0.80;;;22.20;64.70;;;;;;5036498;28;22151;-37
2023/01/17 09:34:12;;;;;;;1.20;0.70;;;22.20;64.60;;;;;;5039832;28;20520;-37
2023/01/17 09:36:39;;;;;;;0.93;0.77;;;22.20;64.80;;;;;;5041810;28;20455;-36
2023/01/17 09:39:09;;;;;;;0.90;0.70;;;22.20;64.70;;;;;;5034206;28;20201;-36
2023/01/17 09:41:43;;;;;;;1.00;0.70;;;22.20;64.70;;;;;;5033445;28;20611;-36
2023/01/17 09:44:27;;;;;;;1.50;0.77;;;22.20;64.70;;;;;;5038210;28;20726;-36
2023/01/17 09:46:57;;;;;;;3.05;1.55;;;22.20;64.70;;;;;;5036403;28;20545;-36
2023/01/17 09:49:33;;;;;;;1.77;0.80;;;22.20;65.20;;;;;;5039927;28;20197;-36
2023/01/17 09:52:00;;;;;;;1.42;0.90;;;22.10;65.20;;;;;;5025283;28;20466;-37
2023/01/17 09:54:34;;;;;;;1.70;1.00;;;22.10;64.10;;;;;;5028358;28;20202;-36
2023/01/17 09:57:07;;;;;;;2.20;0.90;;;22.00;65.00;;;;;;5030726;28;20468;-36
2023/01/17 09:59:42;;;;;;;1.10;1.00;;;22.10;65.00;;;;;;5031372;28;20230;-36
2023/01/17 10:02:24;;;;;;;1.20;0.93;;;22.20;64.80;;;;;;5028638;28;20227;-36
2023/01/17 10:05:06;;;;;;;2.72;0.98;;;22.30;64.90;;;;;;5029988;28;20201;-35
2023/01/17 10:07:41;;;;;;;1.67;0.85;;;22.30;65.00;;;;;;5030626;28;20196;-36
2023/01/17 10:10:28;;;;;;;1.95;1.35;;;22.20;65.20;;;;;;5029243;28;20252;-35
2023/01/17 10:13:00;;;;;;;1.70;1.00;;;22.20;65.50;;;;;;5037830;28;20210;-35
2023/01/17 10:15:48;;;;;;;1.10;0.80;;;22.10;65.40;;;;;;5039602;28;20216;-35
2023/01/17 10:18:35;;;;;;;1.27;0.90;;;22.20;65.30;;;;;;5029251;28;20576;-35
2023/01/17 10:21:10;;;;;;;1.70;1.60;;;22.20;65.50;;;;;;5028970;28;20217;-35
2023/01/17 10:24:15;;;;;;;4.57;1.35;;;22.10;65.40;;;;;;5033302;28;20653;-35
2023/01/17 10:26:46;;;;;;;1.98;0.90;;;22.30;65.20;;;;;;5007941;28;20669;-35
2023/01/17 10:29:16;;;;;;;1.20;0.80;;;22.40;65.00;;;;;;5039798;28;20196;-35
2023/01/17 10:31:49;;;;;;;1.23;0.90;;;22.40;65.00;;;;;;5037379;28;20198;-35
2023/01/17 10:34:19;;;;;;;1.00;0.90;;;22.40;64.90;;;;;;5038030;28;20541;-35
2023/01/17 10:36:52;;;;;;;1.20;0.90;;;22.40;64.80;;;;;;5039745;28;20835;-36
2023/01/17 10:39:21;;;;;;;1.10;1.00;;;22.40;64.80;;;;;;5037356;28;20469;-35
2023/01/17 10:41:55;;;;;;;5.57;1.30;;;22.40;64.80;;;;;;5031870;28;20986;-35
2023/01/17 10:44:29;;;;;;;4.43;0.90;;;22.40;65.00;;;;;;5037412;28;20280;-35
2023/01/17 10:47:01;;;;;;;1.40;1.00;;;22.40;65.00;;;;;;5036325;28;21042;-36
2023/01/17 10:49:28;;;;;;;3.70;0.90;;;22.40;65.00;;;;;;5033644;28;20621;-35
2023/01/17 10:52:08;;;;;;;1.90;1.00;;;22.40;65.10;;;;;;5028930;28;20213;-36
2023/01/17 10:55:03;;;;;;;3.95;0.90;;;22.40;65.10;;;;;;5025561;28;20516;-35
2023/01/17 10:57:39;;;;;;;0.90;0.70;;;22.40;65.00;;;;;;5033283;28;20248;-35
2023/01/17 11:00:28;;;;;;;1.57;1.13;;;22.40;65.00;;;;;;5032153;28;20483;-35
2023/01/17 11:02:55;;;;;;;1.00;0.90;;;22.40;65.00;;;;;;5031961;28;21091;-35
2023/01/17 11:05:25;;;;;;;1.30;1.00;;;22.40;65.20;;;;;;5033007;28;20482;-36
2023/01/17 11:08:00;;;;;;;0.80;0.73;;;22.40;65.20;;;;;;5039593;28;20986;-35
2023/01/17 11:10:39;;;;;;;2.00;0.93;;;22.30;65.20;;;;;;5035489;28;20509;-36
2023/01/17 11:13:23;;;;;;;1.33;0.90;;;22.30;65.20;;;;;;5035796;28;20463;-35
2023/01/17 11:15:52;;;;;;;1.10;0.87;;;22.40;65.30;;;;;;5039236;28;20467;-35
2023/01/17 11:18:20;;;;;;;1.50;1.20;;;22.40;65.30;;;;;;5036428;28;20468;-35
2023/01/17 11:20:48;;;;;;;1.13;1.00;;;22.30;65.20;;;;;;5033366;28;20461;-35
2023/01/17 11:23:17;;;;;;;1.30;1.00;;;22.30;65.30;;;;;;5032203;28;20471;-35
2023/01/17 11:25:52;;;;;;;1.43;1.10;;;22.40;65.20;;;;;;5039910;28;20658;-37
2023/01/17 11:28:24;;;;;;;1.53;0.90;;;22.30;65.20;;;;;;5040260;28;21946;-36
2023/01/17 11:30:54;;;;;;;1.50;1.00;;;22.40;65.30;;;;;;5037409;28;20471;-36
2023/01/17 11:33:43;;;;;;;2.70;1.40;;;22.40;65.30;;;;;;5041967;28;20471;-36
2023/01/17 11:36:19;;;;;;;2.40;0.93;;;22.40;65.30;;;;;;5040243;28;22342;-35
2023/01/17 11:39:01;;;;;;;2.00;1.20;;;22.40;65.30;;;;;;5033662;28;20510;-35
2023/01/17 11:41:33;;;;;;;7.13;1.53;;;22.40;65.20;;;;;;5036625;28;20484;-35
2023/01/17 11:44:03;;;;;;;1.67;1.10;;;22.30;65.60;;;;;;5040422;28;20517;-35
2023/01/17 11:46:31;;;;;;;1.53;1.23;;;22.20;66.30;;;;;;5033732;28;20468;-40
2023/01/17 11:48:59;;;;;;;3.60;1.07;;;22.10;66.30;;;;;;5036774;28;20470;-41
2023/01/17 11:51:29;;;;;;;1.63;1.10;;;22.30;66.00;;;;;;5033368;28;20467;-41
2023/01/17 11:54:16;;;;;;;1.40;1.00;;;22.70;65.30;;;;;;5032334;28;20471;-41
2023/01/17 11:56:45;;;;;;;1.20;1.10;;;23.00;64.40;;;;;;5033192;28;20943;-40
2023/01/17 11:59:26;;;;;;;4.33;1.60;;;23.30;63.90;;;;;;5036275;28;20950;-38
2023/01/17 12:02:04;;;;;;;1.13;1.02;;;23.50;63.30;;;;;;5032041;28;20482;-37
2023/01/17 12:04:38;;;;;;;1.40;1.10;;;23.60;63.20;;;;;;5038075;28;20206;-37
2023/01/17 12:07:16;;;;;;;1.40;1.20;;;23.80;62.80;;;;;;5035019;28;20483;-41
2023/01/17 12:09:48;;;;;;;1.43;1.10;;;23.90;62.60;;;;;;5031914;28;20514;-40
2023/01/17 12:15:23;;;;;;;1.30;0.93;;;23.80;62.80;;;;;;5039457;28;20471;-40
2023/01/17 12:18:08;;;;;;;1.70;1.10;;;23.70;63.00;;;;;;5040671;28;20263;-40
2023/01/17 12:20:45;;;;;;;1.53;1.20;;;23.60;63.10;;;;;;5038834;28;20514;-41
2023/01/17 12:23:35;;;;;;;1.17;1.07;;;23.50;63.30;;;;;;5034130;28;20480;-37
2023/01/17 12:26:19;;;;;;;1.40;1.20;;;23.50;63.50;;;;;;5032745;28;20463;-38
2023/01/17 12:29:20;;;;;;;1.30;1.20;;;23.50;63.60;;;;;;5029452;28;20472;-38
2023/01/17 12:31:57;;;;;;;4.90;1.40;;;23.40;63.60;;;;;;5030115;28;20537;-38
2023/01/17 12:34:29;;;;;;;1.10;1.00;;;23.40;63.80;;;;;;5032996;28;20467;-39
2023/01/17 12:37:00;;;;;;;1.20;1.07;;;23.30;63.90;;;;;;5032070;28;20876;-39
2023/01/17 12:39:34;;;;;;;1.30;1.10;;;23.20;64.00;;;;;;5027122;28;20455;-39
2023/01/17 12:42:05;;;;;;;1.35;1.25;;;23.20;64.20;;;;;;5027778;28;20480;-40
2023/01/17 12:44:56;;;;;;;3.10;1.57;;;23.20;64.20;;;;;;5034105;28;20201;-38
2023/01/17 12:47:25;;;;;;;1.60;1.40;;;23.20;64.20;;;;;;5038632;28;20451;-38
2023/01/17 12:50:02;;;;;;;1.77;1.67;;;23.20;64.50;;;;;;5036293;28;20498;-40
2023/01/17 12:52:41;;;;;;;3.03;1.13;;;23.10;64.80;;;;;;5028458;28;20534;-39
2023/01/17 12:55:16;;;;;;;2.20;1.40;;;23.10;64.70;;;;;;5030668;28;20461;-39
2023/01/17 12:57:46;;;;;;;1.40;1.30;;;23.20;64.60;;;;;;5030976;28;20192;-39
2023/01/17 13:00:18;;;;;;;1.40;1.20;;;23.30;64.50;;;;;;5032331;28;20564;-41
2023/01/17 13:02:52;;;;;;;1.30;1.20;;;23.40;64.30;;;;;;5027514;28;20533;-40
2023/01/17 13:05:23;;;;;;;1.33;1.10;;;23.40;64.00;;;;;;5028705;28;20941;-39
2023/01/17 13:07:56;;;;;;;1.33;1.13;;;23.50;64.00;;;;;;5030305;28;20901;-38
2023/01/17 13:10:34;;;;;;;1.33;1.00;;;23.50;64.00;;;;;;5032727;28;20463;-37
2023/01/17 13:13:09;;;;;;;1.70;1.20;;;23.50;63.90;;;;;;5032292;28;20519;-39
2023/01/17 13:15:39;;;;;;;1.73;1.50;;;23.70;63.70;;;;;;5039300;28;21047;-40
2023/01/17 13:18:14;;;;;;;1.70;1.40;;;23.80;63.20;;;;;;5038963;28;20452;-40
2023/01/17 13:21:03;;;;;;;1.70;1.43;;;24.00;62.90;;;;;;5038973;28;20521;-40
2023/01/17 13:23:40;;;;;;;2.43;1.87;;;24.10;62.60;;;;;;5041188;28;21011;-39
2023/01/17 13:26:17;;;;;;;1.70;1.10;;;24.10;62.60;;;;;;5040190;28;20951;-41
2023/01/17 13:28:55;;;;;;;1.40;1.30;;;24.20;62.50;;;;;;5038947;28;20489;-37
2023/01/17 13:31:32;;;;;;;1.20;1.10;;;24.20;62.60;;;;;;5039875;28;21025;-39
2023/01/17 13:34:20;;;;;;;1.20;1.10;;;24.20;62.50;;;;;;5039289;28;20463;-37
2023/01/17 13:36:58;;;;;;;1.20;1.10;;;24.10;62.30;;;;;;5040676;28;20467;-39
2023/01/17 13:39:58;;;;;;;1.70;1.20;;;23.90;63.00;;;;;;5039912;28;21232;-39
2023/01/17 13:42:34;;;;;;;2.30;1.60;;;23.80;63.00;;;;;;5032166;28;20483;-39
2023/01/17 13:45:07;;;;;;;1.53;1.43;;;23.80;63.20;;;;;;5040340;28;20562;-41
2023/01/17 13:47:41;;;;;;;2.23;1.40;;;23.80;64.20;;;;;;5040002;28;20460;-39
2023/01/17 13:50:47;;;;;;;2.43;1.77;;;23.70;63.50;;;;;;5039727;28;20567;-39
2023/01/17 13:53:55;;;;;;;2.00;1.60;;;23.60;63.60;;;;;;5033733;28;20759;-40
2023/01/17 13:56:39;;;;;;;1.63;1.47;;;23.70;63.40;;;;;;5031620;28;20460;-40
2023/01/17 13:59:30;;;;;;;1.95;1.40;;;23.80;61.50;;;;;;5032481;28;20463;-42
2023/01/17 14:01:57;;;;;;;1.20;1.10;;;23.70;61.40;;;;;;5023179;28;20261;-42
2023/01/17 14:04:45;;;;;;;1.40;1.30;;;23.60;61.60;;;;;;5028696;28;20209;-41
2023/01/17 14:07:26;;;;;;;1.40;1.30;;;23.40;63.50;;;;;;5032989;28;20980;-42
2023/01/17 14:09:52;;;;;;;1.80;1.40;;;23.30;62.90;;;;;;5033738;28;20461;-41
2023/01/17 14:12:30;;;;;;;1.40;1.20;;;23.30;63.20;;;;;;5029989;28;20562;-40
2023/01/17 14:15:00;;;;;;;1.53;1.30;;;23.40;63.30;;;;;;5033954;28;20471;-38
2023/01/17 14:17:46;;;;;;;1.30;1.20;;;23.40;63.40;;;;;;5031407;28;20463;-38
2023/01/17 14:20:42;;;;;;;1.47;1.20;;;23.40;63.40;;;;;;5034229;28;21021;-38
2023/01/17 14:23:48;;;;;;;1.63;1.53;;;23.50;63.30;;;;;;5034292;28;20615;-39
2023/01/17 14:26:27;;;;;;;1.45;1.35;;;23.50;63.20;;;;;;5029330;28;20460;-36
2023/01/17 14:28:55;;;;;;;2.53;1.10;;;23.30;63.50;;;;;;5033663;28;20258;-35
2023/01/17 14:31:23;;;;;;;1.10;1.00;;;22.70;65.30;;;;;;5029331;28;20522;-35